sensor_id;sensor_type;location;lat;lon;timestamp;P1;durP1;ratioP1;P2;durP2;ratioP2
25932;SDS011;13731;51.166;4.474;2023-04-01T00:00:52;136.18;;;129.27;;
25932;SDS011;13731;51.166;4.474;2023-04-01T00:03:19;194.15;;;183.23;;
25932;SDS011;13731;51.166;4.474;2023-04-01T00:05:46;144.43;;;137.52;;
25932;SDS011;13731;51.166;4.474;2023-04-01T00:08:12;153.18;;;144.82;;
25932;SDS011;13731;51.166;4.474;2023-04-01T00:10:38;139.00;;;131.68;;
25932;SDS011;13731;51.166;4.474;2023-04-01T00:13:04;138.10;;;130.57;;
25932;SDS011;13731;51.166;4.474;2023-04-01T00:15:30;163.05;;;154.50;;
25932;SDS011;13731;51.166;4.474;2023-04-01T00:17:56;183.15;;;173.90;;
25932;SDS011;13731;51.166;4.474;2023-04-01T00:20:22;159.73;;;151.07;;
25932;SDS011;13731;51.166;4.474;2023-04-01T00:22:48;182.18;;;171.40;;
25932;SDS011;13731;51.166;4.474;2023-04-01T00:25:14;138.52;;;131.05;;
25932;SDS011;13731;51.166;4.474;2023-04-01T00:27:41;166.38;;;156.93;;
25932;SDS011;13731;51.166;4.474;2023-04-01T00:30:07;172.02;;;162.85;;
25932;SDS011;13731;51.166;4.474;2023-04-01T00:32:34;170.18;;;160.43;;
25932;SDS011;13731;51.166;4.474;2023-04-01T00:35:00;135.00;;;128.05;;
25932;SDS011;13731;51.166;4.474;2023-04-01T00:37:27;136.43;;;128.90;;
25932;SDS011;13731;51.166;4.474;2023-04-01T00:39:54;151.32;;;143.05;;
25932;SDS011;13731;51.166;4.474;2023-04-01T00:42:20;133.52;;;126.72;;
25932;SDS011;13731;51.166;4.474;2023-04-01T00:44:50;137.10;;;129.68;;
25932;SDS011;13731;51.166;4.474;2023-04-01T00:47:18;148.48;;;140.50;;
25932;SDS011;13731;51.166;4.474;2023-04-01T00:49:45;189.68;;;179.30;;
25932;SDS011;13731;51.166;4.474;2023-04-01T00:52:18;160.40;;;152.00;;
25932;SDS011;13731;51.166;4.474;2023-04-01T00:54:48;166.52;;;157.50;;
25932;SDS011;13731;51.166;4.474;2023-04-01T00:57:19;157.00;;;148.05;;
25932;SDS011;13731;51.166;4.474;2023-04-01T00:59:50;144.50;;;136.55;;
25932;SDS011;13731;51.166;4.474;2023-04-01T01:02:20;149.23;;;140.82;;
25932;SDS011;13731;51.166;4.474;2023-04-01T01:04:48;142.73;;;135.40;;
25932;SDS011;13731;51.166;4.474;2023-04-01T01:12:56;141.40;;;133.65;;
25932;SDS011;13731;51.166;4.474;2023-04-01T01:29:06;147.15;;;139.00;;
25932;SDS011;13731;51.166;4.474;2023-04-01T01:31:50;129.73;;;122.45;;
25932;SDS011;13731;51.166;4.474;2023-04-01T01:34:36;134.02;;;126.53;;
25932;SDS011;13731;51.166;4.474;2023-04-01T01:37:47;138.13;;;130.52;;
25932;SDS011;13731;51.166;4.474;2023-04-01T01:40:17;130.18;;;122.40;;
25932;SDS011;13731;51.166;4.474;2023-04-01T01:42:46;128.50;;;121.10;;
25932;SDS011;13731;51.166;4.474;2023-04-01T01:45:16;131.88;;;124.70;;
25932;SDS011;13731;51.166;4.474;2023-04-01T01:47:45;145.90;;;138.30;;
25932;SDS011;13731;51.166;4.474;2023-04-01T01:50:14;145.95;;;138.18;;
25932;SDS011;13731;51.166;4.474;2023-04-01T01:52:42;152.07;;;144.05;;
25932;SDS011;13731;51.166;4.474;2023-04-01T01:57:52;177.70;;;167.32;;
25932;SDS011;13731;51.166;4.474;2023-04-01T02:00:22;140.75;;;132.98;;
25932;SDS011;13731;51.166;4.474;2023-04-01T02:02:48;153.45;;;144.77;;
25932;SDS011;13731;51.166;4.474;2023-04-01T02:05:17;139.45;;;132.05;;
25932;SDS011;13731;51.166;4.474;2023-04-01T02:07:48;151.52;;;143.20;;
25932;SDS011;13731;51.166;4.474;2023-04-01T02:10:21;152.02;;;143.45;;
25932;SDS011;13731;51.166;4.474;2023-04-01T02:12:50;145.98;;;137.80;;
25932;SDS011;13731;51.166;4.474;2023-04-01T02:15:18;145.87;;;137.87;;
25932;SDS011;13731;51.166;4.474;2023-04-01T02:17:48;140.98;;;133.90;;
25932;SDS011;13731;51.166;4.474;2023-04-01T02:20:18;145.13;;;137.52;;
25932;SDS011;13731;51.166;4.474;2023-04-01T02:22:51;183.25;;;173.52;;
25932;SDS011;13731;51.166;4.474;2023-04-01T02:25:23;149.73;;;142.13;;
25932;SDS011;13731;51.166;4.474;2023-04-01T02:28:00;163.50;;;154.95;;
25932;SDS011;13731;51.166;4.474;2023-04-01T02:30:29;157.07;;;148.33;;
25932;SDS011;13731;51.166;4.474;2023-04-01T02:32:58;173.88;;;164.43;;
25932;SDS011;13731;51.166;4.474;2023-04-01T02:35:25;140.02;;;132.35;;
25932;SDS011;13731;51.166;4.474;2023-04-01T02:37:52;130.50;;;123.82;;
25932;SDS011;13731;51.166;4.474;2023-04-01T02:40:20;139.82;;;131.88;;
25932;SDS011;13731;51.166;4.474;2023-04-01T02:42:46;124.10;;;117.60;;
25932;SDS011;13731;51.166;4.474;2023-04-01T02:45:12;144.07;;;136.52;;
25932;SDS011;13731;51.166;4.474;2023-04-01T02:47:40;141.70;;;134.38;;
25932;SDS011;13731;51.166;4.474;2023-04-01T02:50:06;130.32;;;123.53;;
25932;SDS011;13731;51.166;4.474;2023-04-01T02:52:33;136.48;;;129.23;;
25932;SDS011;13731;51.166;4.474;2023-04-01T02:55:01;144.07;;;136.23;;
25932;SDS011;13731;51.166;4.474;2023-04-01T02:57:28;185.20;;;173.55;;
25932;SDS011;13731;51.166;4.474;2023-04-01T02:59:54;139.57;;;132.40;;
25932;SDS011;13731;51.166;4.474;2023-04-01T03:02:20;150.85;;;142.75;;
25932;SDS011;13731;51.166;4.474;2023-04-01T03:04:46;145.40;;;138.05;;
25932;SDS011;13731;51.166;4.474;2023-04-01T03:07:12;131.40;;;124.75;;
25932;SDS011;13731;51.166;4.474;2023-04-01T03:09:38;149.57;;;141.63;;
25932;SDS011;13731;51.166;4.474;2023-04-01T03:12:05;147.07;;;139.32;;
25932;SDS011;13731;51.166;4.474;2023-04-01T03:14:43;138.90;;;131.65;;
25932;SDS011;13731;51.166;4.474;2023-04-01T03:17:09;156.85;;;148.10;;
25932;SDS011;13731;51.166;4.474;2023-04-01T03:19:34;135.68;;;128.68;;
25932;SDS011;13731;51.166;4.474;2023-04-01T03:22:04;130.63;;;123.78;;
25932;SDS011;13731;51.166;4.474;2023-04-01T03:24:30;128.77;;;122.53;;
25932;SDS011;13731;51.166;4.474;2023-04-01T03:26:56;136.50;;;129.38;;
25932;SDS011;13731;51.166;4.474;2023-04-01T03:29:23;137.00;;;129.93;;
25932;SDS011;13731;51.166;4.474;2023-04-01T03:31:49;128.18;;;121.65;;
25932;SDS011;13731;51.166;4.474;2023-04-01T03:34:15;142.75;;;135.30;;
25932;SDS011;13731;51.166;4.474;2023-04-01T03:36:41;137.73;;;130.35;;
25932;SDS011;13731;51.166;4.474;2023-04-01T03:39:06;144.50;;;136.65;;
25932;SDS011;13731;51.166;4.474;2023-04-01T03:41:39;130.88;;;123.90;;
25932;SDS011;13731;51.166;4.474;2023-04-01T03:44:06;141.50;;;133.95;;
25932;SDS011;13731;51.166;4.474;2023-04-01T03:46:32;143.88;;;135.88;;
25932;SDS011;13731;51.166;4.474;2023-04-01T03:48:57;133.43;;;126.35;;
25932;SDS011;13731;51.166;4.474;2023-04-01T03:51:23;135.10;;;127.90;;
25932;SDS011;13731;51.166;4.474;2023-04-01T03:53:50;139.20;;;131.82;;
25932;SDS011;13731;51.166;4.474;2023-04-01T03:56:16;144.48;;;136.77;;
25932;SDS011;13731;51.166;4.474;2023-04-01T03:58:42;146.10;;;138.20;;
25932;SDS011;13731;51.166;4.474;2023-04-01T04:01:16;141.27;;;133.82;;
25932;SDS011;13731;51.166;4.474;2023-04-01T04:03:44;163.90;;;154.98;;
25932;SDS011;13731;51.166;4.474;2023-04-01T04:06:12;168.85;;;159.65;;
25932;SDS011;13731;51.166;4.474;2023-04-01T04:08:39;166.95;;;158.02;;
25932;SDS011;13731;51.166;4.474;2023-04-01T04:11:05;161.23;;;152.35;;
25932;SDS011;13731;51.166;4.474;2023-04-01T04:13:34;170.07;;;159.93;;
25932;SDS011;13731;51.166;4.474;2023-04-01T04:16:01;161.55;;;152.23;;
25932;SDS011;13731;51.166;4.474;2023-04-01T04:18:28;170.85;;;161.40;;
25932;SDS011;13731;51.166;4.474;2023-04-01T04:20:55;161.10;;;151.93;;
25932;SDS011;13731;51.166;4.474;2023-04-01T04:23:21;167.02;;;157.85;;
25932;SDS011;13731;51.166;4.474;2023-04-01T04:25:54;162.60;;;153.48;;
25932;SDS011;13731;51.166;4.474;2023-04-01T04:28:20;166.02;;;156.63;;
25932;SDS011;13731;51.166;4.474;2023-04-01T04:30:47;161.40;;;151.98;;
25932;SDS011;13731;51.166;4.474;2023-04-01T04:33:12;216.75;;;203.90;;
25932;SDS011;13731;51.166;4.474;2023-04-01T04:35:38;157.45;;;148.70;;
25932;SDS011;13731;51.166;4.474;2023-04-01T04:38:05;156.88;;;148.25;;
25932;SDS011;13731;51.166;4.474;2023-04-01T04:40:31;162.88;;;153.90;;
25932;SDS011;13731;51.166;4.474;2023-04-01T04:42:57;161.90;;;152.95;;
25932;SDS011;13731;51.166;4.474;2023-04-01T04:45:24;162.40;;;153.52;;
25932;SDS011;13731;51.166;4.474;2023-04-01T04:47:53;160.68;;;152.05;;
25932;SDS011;13731;51.166;4.474;2023-04-01T04:50:19;166.55;;;157.35;;
25932;SDS011;13731;51.166;4.474;2023-04-01T04:52:45;152.55;;;144.35;;
25932;SDS011;13731;51.166;4.474;2023-04-01T04:55:11;146.98;;;139.50;;
25932;SDS011;13731;51.166;4.474;2023-04-01T04:57:38;154.05;;;145.77;;
25932;SDS011;13731;51.166;4.474;2023-04-01T05:00:05;139.52;;;132.02;;
25932;SDS011;13731;51.166;4.474;2023-04-01T05:02:43;163.57;;;155.13;;
25932;SDS011;13731;51.166;4.474;2023-04-01T05:05:09;137.15;;;129.68;;
25932;SDS011;13731;51.166;4.474;2023-04-01T05:07:35;156.10;;;147.98;;
25932;SDS011;13731;51.166;4.474;2023-04-01T05:10:02;149.85;;;141.70;;
25932;SDS011;13731;51.166;4.474;2023-04-01T05:12:28;154.05;;;145.95;;
25932;SDS011;13731;51.166;4.474;2023-04-01T05:15:00;146.88;;;139.30;;
25932;SDS011;13731;51.166;4.474;2023-04-01T05:17:26;149.18;;;141.40;;
25932;SDS011;13731;51.166;4.474;2023-04-01T05:19:52;151.57;;;143.88;;
25932;SDS011;13731;51.166;4.474;2023-04-01T05:22:18;153.13;;;145.15;;
25932;SDS011;13731;51.166;4.474;2023-04-01T05:24:45;176.98;;;167.48;;
25932;SDS011;13731;51.166;4.474;2023-04-01T05:27:11;161.15;;;152.73;;
25932;SDS011;13731;51.166;4.474;2023-04-01T05:29:39;153.35;;;145.45;;
25932;SDS011;13731;51.166;4.474;2023-04-01T05:32:08;151.93;;;143.73;;
25932;SDS011;13731;51.166;4.474;2023-04-01T05:34:34;158.38;;;150.30;;
25932;SDS011;13731;51.166;4.474;2023-04-01T05:37:00;156.75;;;148.50;;
25932;SDS011;13731;51.166;4.474;2023-04-01T05:39:26;189.95;;;180.02;;
25932;SDS011;13731;51.166;4.474;2023-04-01T05:41:52;142.32;;;135.07;;
25932;SDS011;13731;51.166;4.474;2023-04-01T05:44:18;151.45;;;143.27;;
25932;SDS011;13731;51.166;4.474;2023-04-01T05:46:47;156.23;;;148.20;;
25932;SDS011;13731;51.166;4.474;2023-04-01T05:49:19;161.38;;;153.10;;
25932;SDS011;13731;51.166;4.474;2023-04-01T05:51:49;157.15;;;149.02;;
25932;SDS011;13731;51.166;4.474;2023-04-01T05:54:16;162.02;;;152.93;;
25932;SDS011;13731;51.166;4.474;2023-04-01T05:56:44;158.05;;;149.82;;
25932;SDS011;13731;51.166;4.474;2023-04-01T05:59:10;153.25;;;145.32;;
25932;SDS011;13731;51.166;4.474;2023-04-01T06:01:36;178.75;;;169.25;;
25932;SDS011;13731;51.166;4.474;2023-04-01T06:04:03;156.65;;;148.63;;
25932;SDS011;13731;51.166;4.474;2023-04-01T06:06:29;146.40;;;139.00;;
25932;SDS011;13731;51.166;4.474;2023-04-01T06:09:18;143.68;;;136.30;;
25932;SDS011;13731;51.166;4.474;2023-04-01T06:23:14;149.65;;;142.27;;
25932;SDS011;13731;51.166;4.474;2023-04-01T06:37:41;142.50;;;135.40;;
25932;SDS011;13731;51.166;4.474;2023-04-01T06:43:10;137.75;;;130.98;;
25932;SDS011;13731;51.166;4.474;2023-04-01T06:52:23;139.85;;;132.85;;
25932;SDS011;13731;51.166;4.474;2023-04-01T06:58:23;133.95;;;127.32;;
25932;SDS011;13731;51.166;4.474;2023-04-01T07:01:07;133.20;;;126.68;;
25932;SDS011;13731;51.166;4.474;2023-04-01T07:03:39;134.90;;;128.38;;
25932;SDS011;13731;51.166;4.474;2023-04-01T07:06:26;145.48;;;138.30;;
25932;SDS011;13731;51.166;4.474;2023-04-01T07:08:59;133.93;;;127.10;;
25932;SDS011;13731;51.166;4.474;2023-04-01T07:11:50;141.90;;;134.55;;
25932;SDS011;13731;51.166;4.474;2023-04-01T07:14:40;137.85;;;130.68;;
25932;SDS011;13731;51.166;4.474;2023-04-01T07:17:17;128.05;;;121.63;;
25932;SDS011;13731;51.166;4.474;2023-04-01T07:19:50;138.35;;;131.57;;
25932;SDS011;13731;51.166;4.474;2023-04-01T07:22:32;138.20;;;131.48;;
25932;SDS011;13731;51.166;4.474;2023-04-01T07:26:04;133.25;;;126.50;;
25932;SDS011;13731;51.166;4.474;2023-04-01T07:28:30;133.77;;;127.03;;
25932;SDS011;13731;51.166;4.474;2023-04-01T07:36:32;150.10;;;142.45;;
25932;SDS011;13731;51.166;4.474;2023-04-01T07:45:21;138.77;;;131.85;;
25932;SDS011;13731;51.166;4.474;2023-04-01T07:50:46;143.38;;;135.95;;
25932;SDS011;13731;51.166;4.474;2023-04-01T07:53:49;142.98;;;135.70;;
25932;SDS011;13731;51.166;4.474;2023-04-01T07:56:15;149.43;;;141.50;;
25932;SDS011;13731;51.166;4.474;2023-04-01T08:07:17;132.27;;;125.65;;
25932;SDS011;13731;51.166;4.474;2023-04-01T08:15:45;126.15;;;119.63;;
25932;SDS011;13731;51.166;4.474;2023-04-01T08:18:51;138.75;;;131.93;;
25932;SDS011;13731;51.166;4.474;2023-04-01T08:21:24;128.75;;;122.45;;
25932;SDS011;13731;51.166;4.474;2023-04-01T08:23:58;126.53;;;120.05;;
25932;SDS011;13731;51.166;4.474;2023-04-01T08:31:55;142.13;;;134.85;;
25932;SDS011;13731;51.166;4.474;2023-04-01T08:34:34;120.65;;;115.03;;
25932;SDS011;13731;51.166;4.474;2023-04-01T08:37:14;122.88;;;116.82;;
25932;SDS011;13731;51.166;4.474;2023-04-01T08:39:46;123.95;;;117.90;;
25932;SDS011;13731;51.166;4.474;2023-04-01T08:45:26;121.35;;;115.13;;
25932;SDS011;13731;51.166;4.474;2023-04-01T08:48:14;119.18;;;113.32;;
25932;SDS011;13731;51.166;4.474;2023-04-01T08:51:08;112.28;;;106.85;;
25932;SDS011;13731;51.166;4.474;2023-04-01T08:56:29;127.90;;;121.20;;
25932;SDS011;13731;51.166;4.474;2023-04-01T09:13:57;146.60;;;138.90;;
25932;SDS011;13731;51.166;4.474;2023-04-01T09:30:38;141.68;;;134.55;;
25932;SDS011;13731;51.166;4.474;2023-04-01T09:44:35;132.65;;;126.13;;
25932;SDS011;13731;51.166;4.474;2023-04-01T09:49:54;128.15;;;121.72;;
25932;SDS011;13731;51.166;4.474;2023-04-01T10:15:46;119.72;;;113.55;;
25932;SDS011;13731;51.166;4.474;2023-04-01T10:21:18;137.23;;;129.85;;
25932;SDS011;13731;51.166;4.474;2023-04-01T10:24:18;122.57;;;116.53;;
25932;SDS011;13731;51.166;4.474;2023-04-01T10:30:02;127.45;;;120.65;;
25932;SDS011;13731;51.166;4.474;2023-04-01T10:32:50;154.25;;;145.85;;
25932;SDS011;13731;51.166;4.474;2023-04-01T10:46:53;135.90;;;128.75;;
25932;SDS011;13731;51.166;4.474;2023-04-01T10:59:15;115.95;;;110.07;;
25932;SDS011;13731;51.166;4.474;2023-04-01T11:05:30;111.65;;;105.90;;
25932;SDS011;13731;51.166;4.474;2023-04-01T11:11:01;134.57;;;127.32;;
25932;SDS011;13731;51.166;4.474;2023-04-01T11:31:37;140.73;;;132.73;;
25932;SDS011;13731;51.166;4.474;2023-04-01T11:34:30;128.90;;;121.97;;
25932;SDS011;13731;51.166;4.474;2023-04-01T11:55:31;150.68;;;142.82;;
25932;SDS011;13731;51.166;4.474;2023-04-01T12:01:12;177.00;;;167.85;;
25932;SDS011;13731;51.166;4.474;2023-04-01T12:18:54;134.50;;;127.22;;
25932;SDS011;13731;51.166;4.474;2023-04-01T12:22:27;131.05;;;124.07;;
25932;SDS011;13731;51.166;4.474;2023-04-01T12:24:47;130.43;;;123.30;;
25932;SDS011;13731;51.166;4.474;2023-04-01T12:27:34;130.55;;;123.82;;
25932;SDS011;13731;51.166;4.474;2023-04-01T12:33:04;141.52;;;133.70;;
25932;SDS011;13731;51.166;4.474;2023-04-01T12:46:51;131.45;;;124.40;;
25932;SDS011;13731;51.166;4.474;2023-04-01T12:52:18;138.60;;;131.50;;
25932;SDS011;13731;51.166;4.474;2023-04-01T12:55:25;197.32;;;186.23;;
25932;SDS011;13731;51.166;4.474;2023-04-01T12:58:15;119.75;;;113.43;;
25932;SDS011;13731;51.166;4.474;2023-04-01T13:01:15;146.45;;;138.88;;
25932;SDS011;13731;51.166;4.474;2023-04-01T13:15:29;131.82;;;125.15;;
25932;SDS011;13731;51.166;4.474;2023-04-01T13:20:41;127.22;;;120.68;;
25932;SDS011;13731;51.166;4.474;2023-04-01T13:23:33;151.15;;;143.30;;
25932;SDS011;13731;51.166;4.474;2023-04-01T13:26:24;141.98;;;134.68;;
25932;SDS011;13731;51.166;4.474;2023-04-01T13:29:04;124.63;;;117.82;;
25932;SDS011;13731;51.166;4.474;2023-04-01T13:38:16;168.90;;;159.40;;
25932;SDS011;13731;51.166;4.474;2023-04-01T13:40:58;167.57;;;158.23;;
25932;SDS011;13731;51.166;4.474;2023-04-01T13:43:43;171.30;;;161.93;;
25932;SDS011;13731;51.166;4.474;2023-04-01T13:49:13;140.32;;;131.95;;
25932;SDS011;13731;51.166;4.474;2023-04-01T14:07:37;124.80;;;118.30;;
25932;SDS011;13731;51.166;4.474;2023-04-01T14:29:37;147.45;;;139.80;;
25932;SDS011;13731;51.166;4.474;2023-04-01T14:34:48;111.22;;;105.63;;
25932;SDS011;13731;51.166;4.474;2023-04-01T14:40:26;100.32;;;94.93;;
25932;SDS011;13731;51.166;4.474;2023-04-01T14:45:45;136.07;;;129.10;;
25932;SDS011;13731;51.166;4.474;2023-04-01T14:54:02;126.00;;;119.72;;
25932;SDS011;13731;51.166;4.474;2023-04-01T14:56:51;102.95;;;97.70;;
25932;SDS011;13731;51.166;4.474;2023-04-01T14:59:30;102.25;;;97.18;;
25932;SDS011;13731;51.166;4.474;2023-04-01T15:04:40;121.43;;;115.07;;
25932;SDS011;13731;51.166;4.474;2023-04-01T15:15:56;116.45;;;110.80;;
25932;SDS011;13731;51.166;4.474;2023-04-01T15:18:29;122.35;;;116.07;;
25932;SDS011;13731;51.166;4.474;2023-04-01T15:32:23;159.32;;;150.93;;
25932;SDS011;13731;51.166;4.474;2023-04-01T15:37:54;195.85;;;186.10;;
25932;SDS011;13731;51.166;4.474;2023-04-01T15:43:11;181.65;;;171.90;;
25932;SDS011;13731;51.166;4.474;2023-04-01T16:02:21;210.30;;;199.52;;
25932;SDS011;13731;51.166;4.474;2023-04-01T16:05:16;187.57;;;178.07;;
25932;SDS011;13731;51.166;4.474;2023-04-01T16:08:13;199.93;;;189.75;;
25932;SDS011;13731;51.166;4.474;2023-04-01T16:23:50;187.43;;;177.23;;
25932;SDS011;13731;51.166;4.474;2023-04-01T16:26:26;181.32;;;171.35;;
25932;SDS011;13731;51.166;4.474;2023-04-01T16:29:12;183.48;;;173.35;;
25932;SDS011;13731;51.166;4.474;2023-04-01T16:34:16;196.35;;;185.35;;
25932;SDS011;13731;51.166;4.474;2023-04-01T16:42:22;187.98;;;177.63;;
25932;SDS011;13731;51.166;4.474;2023-04-01T16:44:53;165.20;;;155.82;;
25932;SDS011;13731;51.166;4.474;2023-04-01T16:49:56;210.07;;;199.18;;
25932;SDS011;13731;51.166;4.474;2023-04-01T16:53:09;162.45;;;152.95;;
25932;SDS011;13731;51.166;4.474;2023-04-01T17:01:04;134.63;;;127.47;;
25932;SDS011;13731;51.166;4.474;2023-04-01T17:03:43;141.65;;;133.68;;
25932;SDS011;13731;51.166;4.474;2023-04-01T17:11:39;137.48;;;130.10;;
25932;SDS011;13731;51.166;4.474;2023-04-01T17:17:16;148.55;;;140.68;;
25932;SDS011;13731;51.166;4.474;2023-04-01T17:19:55;140.48;;;132.90;;
25932;SDS011;13731;51.166;4.474;2023-04-01T17:30:42;132.18;;;125.30;;
25932;SDS011;13731;51.166;4.474;2023-04-01T17:42:06;138.70;;;131.88;;
25932;SDS011;13731;51.166;4.474;2023-04-01T17:45:03;137.73;;;130.38;;
25932;SDS011;13731;51.166;4.474;2023-04-01T17:47:59;144.85;;;136.88;;
25932;SDS011;13731;51.166;4.474;2023-04-01T17:53:38;137.60;;;130.05;;
25932;SDS011;13731;51.166;4.474;2023-04-01T18:22:08;155.02;;;145.32;;
25932;SDS011;13731;51.166;4.474;2023-04-01T18:27:23;130.77;;;122.28;;
25932;SDS011;13731;51.166;4.474;2023-04-01T18:29:57;142.00;;;133.00;;
25932;SDS011;13731;51.166;4.474;2023-04-01T18:32:50;130.70;;;121.22;;
25932;SDS011;13731;51.166;4.474;2023-04-01T18:36:03;133.13;;;124.13;;
25932;SDS011;13731;51.166;4.474;2023-04-01T18:38:34;130.52;;;121.50;;
25932;SDS011;13731;51.166;4.474;2023-04-01T18:46:39;135.45;;;125.97;;
25932;SDS011;13731;51.166;4.474;2023-04-01T18:49:39;134.63;;;125.65;;
25932;SDS011;13731;51.166;4.474;2023-04-01T18:52:31;140.05;;;130.52;;
25932;SDS011;13731;51.166;4.474;2023-04-01T18:57:26;132.73;;;123.20;;
25932;SDS011;13731;51.166;4.474;2023-04-01T19:05:47;138.38;;;129.20;;
25932;SDS011;13731;51.166;4.474;2023-04-01T19:08:26;145.05;;;134.98;;
25932;SDS011;13731;51.166;4.474;2023-04-01T19:10:57;130.73;;;122.25;;
25932;SDS011;13731;51.166;4.474;2023-04-01T19:19:19;140.40;;;130.18;;
25932;SDS011;13731;51.166;4.474;2023-04-01T19:22:44;139.35;;;128.65;;
25932;SDS011;13731;51.166;4.474;2023-04-01T19:27:52;134.68;;;124.82;;
25932;SDS011;13731;51.166;4.474;2023-04-01T19:30:30;138.27;;;127.20;;
25932;SDS011;13731;51.166;4.474;2023-04-01T19:38:58;142.63;;;131.00;;
25932;SDS011;13731;51.166;4.474;2023-04-01T19:53:55;213.98;;;197.98;;
25932;SDS011;13731;51.166;4.474;2023-04-01T19:56:30;180.25;;;166.73;;
25932;SDS011;13731;51.166;4.474;2023-04-01T19:59:18;200.65;;;185.30;;
25932;SDS011;13731;51.166;4.474;2023-04-01T20:04:42;147.25;;;135.65;;
25932;SDS011;13731;51.166;4.474;2023-04-01T20:10:14;163.38;;;151.52;;
25932;SDS011;13731;51.166;4.474;2023-04-01T20:18:02;250.00;;;234.88;;
25932;SDS011;13731;51.166;4.474;2023-04-01T20:20:37;198.18;;;184.82;;
25932;SDS011;13731;51.166;4.474;2023-04-01T20:25:55;193.82;;;182.13;;
25932;SDS011;13731;51.166;4.474;2023-04-01T20:28:37;172.13;;;161.68;;
25932;SDS011;13731;51.166;4.474;2023-04-01T20:31:33;157.45;;;147.85;;
25932;SDS011;13731;51.166;4.474;2023-04-01T20:53:28;108.28;;;102.07;;
25932;SDS011;13731;51.166;4.474;2023-04-01T21:04:27;82.10;;;77.40;;
25932;SDS011;13731;51.166;4.474;2023-04-01T21:07:15;80.70;;;75.85;;
25932;SDS011;13731;51.166;4.474;2023-04-01T21:15:50;97.75;;;91.72;;
25932;SDS011;13731;51.166;4.474;2023-04-01T21:21:13;109.70;;;103.15;;
25932;SDS011;13731;51.166;4.474;2023-04-01T21:35:03;94.20;;;88.53;;
25932;SDS011;13731;51.166;4.474;2023-04-01T21:40:40;97.15;;;91.13;;
25932;SDS011;13731;51.166;4.474;2023-04-01T21:54:11;89.85;;;84.25;;
25932;SDS011;13731;51.166;4.474;2023-04-01T21:59:33;99.05;;;92.82;;
25932;SDS011;13731;51.166;4.474;2023-04-01T22:16:17;100.85;;;94.32;;
25932;SDS011;13731;51.166;4.474;2023-04-01T22:26:38;107.38;;;100.78;;
25932;SDS011;13731;51.166;4.474;2023-04-01T22:32:20;101.05;;;94.22;;
25932;SDS011;13731;51.166;4.474;2023-04-01T22:35:02;104.28;;;97.63;;
25932;SDS011;13731;51.166;4.474;2023-04-01T22:41:00;104.70;;;98.10;;
25932;SDS011;13731;51.166;4.474;2023-04-01T22:43:41;101.85;;;95.40;;
25932;SDS011;13731;51.166;4.474;2023-04-01T22:46:26;98.90;;;92.60;;
25932;SDS011;13731;51.166;4.474;2023-04-01T22:49:04;92.65;;;86.85;;
25932;SDS011;13731;51.166;4.474;2023-04-01T22:51:57;85.30;;;79.40;;
25932;SDS011;13731;51.166;4.474;2023-04-01T22:54:43;93.45;;;87.15;;
25932;SDS011;13731;51.166;4.474;2023-04-01T23:00:00;117.30;;;109.60;;
25932;SDS011;13731;51.166;4.474;2023-04-01T23:02:36;113.32;;;105.88;;
25932;SDS011;13731;51.166;4.474;2023-04-01T23:05:12;116.50;;;108.88;;
25932;SDS011;13731;51.166;4.474;2023-04-01T23:12:56;112.45;;;104.80;;
25932;SDS011;13731;51.166;4.474;2023-04-01T23:15:25;115.40;;;107.80;;
25932;SDS011;13731;51.166;4.474;2023-04-01T23:18:05;99.05;;;92.13;;
25932;SDS011;13731;51.166;4.474;2023-04-01T23:26:31;101.15;;;94.18;;
25932;SDS011;13731;51.166;4.474;2023-04-01T23:29:13;91.65;;;85.40;;
25932;SDS011;13731;51.166;4.474;2023-04-01T23:31:42;81.85;;;76.28;;
25932;SDS011;13731;51.166;4.474;2023-04-01T23:36:47;83.28;;;77.50;;
25932;SDS011;13731;51.166;4.474;2023-04-01T23:41:55;87.38;;;81.80;;
25932;SDS011;13731;51.166;4.474;2023-04-01T23:44:25;92.65;;;86.85;;
25932;SDS011;13731;51.166;4.474;2023-04-01T23:46:54;93.53;;;87.78;;
25932;SDS011;13731;51.166;4.474;2023-04-01T23:49:22;89.07;;;83.28;;
25932;SDS011;13731;51.166;4.474;2023-04-01T23:52:20;83.70;;;78.03;;
25932;SDS011;13731;51.166;4.474;2023-04-01T23:57:21;96.50;;;90.53;;
